Yigo, Guam
Current Conditions -  °F | °C
As of 5:58 PM on Friday 24 Oct 2014 (Local Time) from PGUA Reporting Station
Clear Clear  
Wind Chill: 28°   Ceiling: Unl
Heat Index: 31°   Visibility: 10mi
Dew Point: 24°   Wind: 8mph
Humidity: 82%   Direction: 90°E
Pressure: 29.87"   Gusts: NA
Location:  13.53°N, 144.89°E
Report Text: PGUA 240758Z AUTO 09007KT 10SM CLR 28/24 A2987 RMK AO2 RAB0747E0754 SLP105 P0000 T02750241 $
Loading
Personal Weather Stations






























Interactive Weather Map
Tropical Storm Tracking
New forecast layout! Learn more

10-Day Weather Forecast

Advertisements
Track Severe Weather on mobile